Castel Gandolfo, Italy

9:04 AM CEST on August 21, 2014 (GMT +0200)
ILAZIOMA4 | Change Station
CLOSE
Current Station
Personal Weather Station
Location: Marino, LAZIO
Elevation: 1190 ft
Nearby Weather Stations

Elev 1190 ft 41.77 °N, 12.66 °E | Updated 11 hours ago

Partly Cloudy
Partly Cloudy
77 °F
Feels Like 77 °F
N
5
Wind Variable Wind from SSE
Gusts mph

Today
High -- | Low -- °F
--% Chance of Precip.
Yesterday
High -- | Low -- °F
Precip. -- in
6:23 AM 8:00 PM
Waning Crescent, 16% visible
Pressure 29.95 in
Visibility 5.0 miles
Clouds Scattered Clouds 1000 ft
Scattered Clouds 1500 ft
Few 1800 ft
Dew Point 67 °F
Humidity 71%
Rainfall 0.00 in
Snow Depth Not available.
UV 2 out of 12
Pollen Not available.
Air Quality Not available.
Flu Activity Not available.
METAR LIRA 210645Z VRB01KT 8000 SCT010 SCT015 FEW018TCU 25/21 Q1014

More Conditions Fewer Conditions

Pressure 29.95 in
Visibility 5.0 miles
Clouds Scattered Clouds 1000 ft
Scattered Clouds 1500 ft
Few 1800 ft
Dew Point 67 °F
Humidity 71%
Rainfall 0.00 in
Snow Depth Not available.
UV 2 out of 12
Pollen Not available.
Air Quality Not available.
Flu Activity Not available.
METAR LIRA 210645Z VRB01KT 8000 SCT010 SCT015 FEW018TCU 25/21 Q1014

More Conditions Fewer Conditions

10-Day Weather Forecast

Almanac

Astronomy

Aug. 21, 2014 Rise Set
Actual Time 6:23 AM CEST 8:00 PM CEST
Civil Twilight 5:54 AM CEST 8:30 PM CEST
Nautical Twilight 5:18 AM CEST 9:05 PM CEST
Astronomical Twilight 4:40 AM CEST 9:43 PM CEST
Moon 2:37 AM CEST 5:18 PM CEST
Length of Visible Light 14h 35m
Length of Day
13h 37m
Tomorrow will be 2m 34s shorter.
Waning Crescent, 16% of the Moon is Illuminated
Today
Waning Crescent
Aug 25
New
Sep 2
First Quarter
Sep 8
Full
Sep 15
Last Quarter

Yesterday's Extremes

Country Highs Country Lows

Community

WunderPhotos

Upload Photos

1,745,858 photos uploaded!

Nearby

Snow Depth

Not available.

Earthquake Activity

City Distance Mag. Time & Date
No recent earthquake activity has been reported nearby.
Minimum magnitude displayed is 2.5.

Coastal Water Temperatures

Place Temperature
No Stations Reporting

Nearby Weather Stations